Time;durP1;ratioP1;P1;durP2;ratioP2;P2;SDS_P1;SDS_P2;PMS_P1;PMS_P2;Temp;Humidity;BMP_temperature;BMP_pressure;BME280_temperature;BME280_humidity;BME280_pressure;Samples;Min_cycle;Max_cycle;Signal;HPM_P1;HPM_P2
2024/01/23 00:00:21;;;;;;;28.83;4.50;;;6.90;99.90;;;;;;4973795;28;20040;-73
2024/01/23 00:02:46;;;;;;;19.60;1.77;;;6.90;99.90;;;;;;4973883;28;20494;-73
2024/01/23 00:05:12;;;;;;;16.98;2.30;;;7.00;99.90;;;;;;4979220;28;20030;-73
2024/01/23 00:07:37;;;;;;;14.10;2.40;;;7.00;99.90;;;;;;4968124;28;20650;-73
2024/01/23 00:10:03;;;;;;;25.15;2.72;;;7.00;99.90;;;;;;4964799;28;20506;-73
2024/01/23 00:12:29;;;;;;;39.08;3.75;;;7.00;99.90;;;;;;4979770;28;20030;-73
2024/01/23 00:14:57;;;;;;;17.25;2.80;;;7.00;99.90;;;;;;4978182;28;20441;-74
2024/01/23 00:17:22;;;;;;;28.10;3.50;;;7.10;99.90;;;;;;4951614;28;20027;-72
2024/01/23 00:19:48;;;;;;;18.92;2.38;;;7.10;99.90;;;;;;4961341;28;20045;-72
2024/01/23 00:22:13;;;;;;;17.63;2.90;;;7.10;99.90;;;;;;4956723;28;20550;-73
2024/01/23 00:24:39;;;;;;;19.85;3.92;;;7.10;99.90;;;;;;4969320;28;20080;-73
2024/01/23 00:27:04;;;;;;;23.00;2.65;;;7.10;99.90;;;;;;4964123;28;20976;-74
2024/01/23 00:29:30;;;;;;;19.80;2.83;;;7.10;99.90;;;;;;4960004;28;20545;-73
2024/01/23 00:31:55;;;;;;;13.80;2.40;;;7.10;99.90;;;;;;4952587;28;20059;-74
2024/01/23 00:34:21;;;;;;;27.63;3.10;;;7.10;99.90;;;;;;4976238;28;20027;-73
2024/01/23 00:36:46;;;;;;;17.20;3.25;;;7.00;99.90;;;;;;4961311;28;20046;-73
2024/01/23 00:39:12;;;;;;;27.38;3.47;;;7.00;99.90;;;;;;4978314;28;20027;-74
2024/01/23 00:41:39;;;;;;;26.08;2.70;;;6.90;99.90;;;;;;4952399;28;20050;-73
2024/01/23 00:44:04;;;;;;;23.52;2.05;;;6.90;99.90;;;;;;4972790;28;20030;-75
2024/01/23 00:46:30;;;;;;;18.90;2.42;;;6.80;99.90;;;;;;4971898;28;20035;-74
2024/01/23 00:48:55;;;;;;;35.33;3.67;;;6.80;99.90;;;;;;4972666;28;20037;-73
2024/01/23 00:51:21;;;;;;;19.17;2.08;;;6.80;99.90;;;;;;4972501;28;20079;-73
2024/01/23 00:53:46;;;;;;;17.90;2.75;;;6.80;99.90;;;;;;4969022;28;20490;-74
2024/01/23 00:56:12;;;;;;;19.95;2.35;;;6.80;99.90;;;;;;4970518;28;20518;-74
2024/01/23 00:58:37;;;;;;;13.63;1.83;;;6.70;99.90;;;;;;4969078;28;20035;-73
2024/01/23 01:01:03;;;;;;;19.60;2.45;;;6.70;99.90;;;;;;4975891;28;20039;-73
2024/01/23 01:03:29;;;;;;;16.95;2.10;;;6.70;99.90;;;;;;4968919;28;20054;-73
2024/01/23 01:05:55;;;;;;;23.15;3.42;;;6.70;99.90;;;;;;4968434;28;20039;-73
2024/01/23 01:08:21;;;;;;;14.60;1.55;;;6.70;99.90;;;;;;4954580;28;20115;-73
2024/01/23 01:10:47;;;;;;;17.45;2.53;;;6.60;99.90;;;;;;4968901;28;20451;-74
2024/01/23 01:13:12;;;;;;;28.42;3.38;;;6.60;99.90;;;;;;4967057;28;20121;-74
2024/01/23 01:15:38;;;;;;;17.00;2.15;;;6.60;99.90;;;;;;4947367;28;20499;-73
2024/01/23 01:18:06;;;;;;;11.00;2.50;;;6.60;99.90;;;;;;4967330;28;20380;-74
2024/01/23 01:20:32;;;;;;;10.68;1.40;;;6.60;99.90;;;;;;4975648;28;20065;-73
2024/01/23 01:22:57;;;;;;;13.23;2.38;;;6.60;99.90;;;;;;4976133;28;20069;-73
2024/01/23 01:25:24;;;;;;;19.88;3.08;;;6.60;99.90;;;;;;4967781;28;20034;-73
2024/01/23 01:27:50;;;;;;;17.48;2.53;;;6.60;99.90;;;;;;4963454;28;20101;-73
2024/01/23 01:30:16;;;;;;;29.65;3.95;;;6.60;99.90;;;;;;4952291;28;20515;-75
2024/01/23 01:32:41;;;;;;;11.82;1.30;;;6.50;99.90;;;;;;4969540;28;20038;-73
2024/01/23 01:35:07;;;;;;;9.38;1.90;;;6.50;99.90;;;;;;4964759;28;20529;-73
2024/01/23 01:37:33;;;;;;;17.88;1.88;;;6.50;99.90;;;;;;4951492;28;20479;-73
2024/01/23 01:39:58;;;;;;;9.63;0.95;;;6.50;99.90;;;;;;4969497;28;20038;-73
2024/01/23 01:42:24;;;;;;;10.15;1.10;;;6.50;99.90;;;;;;4967073;28;20118;-73
2024/01/23 01:44:50;;;;;;;14.32;1.95;;;6.40;99.90;;;;;;4969084;28;20043;-74
2024/01/23 01:47:17;;;;;;;24.33;2.60;;;6.40;99.90;;;;;;4952941;28;20031;-74
2024/01/23 01:49:43;;;;;;;16.38;2.45;;;6.40;99.90;;;;;;4974572;28;20494;-74
2024/01/23 01:52:11;;;;;;;25.30;4.80;;;6.30;99.90;;;;;;4968692;28;20031;-73
2024/01/23 01:54:40;;;;;;;9.95;2.13;;;6.30;99.90;;;;;;4953990;28;20388;-73
2024/01/23 01:57:07;;;;;;;9.18;1.63;;;6.30;99.90;;;;;;4970174;28;20038;-74
2024/01/23 01:59:33;;;;;;;24.95;2.53;;;6.30;99.90;;;;;;4960566;28;20058;-74
2024/01/23 02:01:59;;;;;;;24.40;3.20;;;6.30;99.90;;;;;;4975689;28;20438;-74
2024/01/23 02:04:25;;;;;;;15.25;2.75;;;6.30;99.90;;;;;;4962637;28;20383;-74
2024/01/23 02:06:51;;;;;;;10.32;1.90;;;6.20;99.90;;;;;;4981907;28;20027;-74
2024/01/23 02:09:17;;;;;;;8.48;1.80;;;6.30;99.90;;;;;;4969072;28;20042;-73
2024/01/23 02:11:59;;;;;;;15.60;3.00;;;6.30;99.90;;;;;;4975665;28;20042;-74
2024/01/23 02:14:26;;;;;;;15.63;2.95;;;6.30;99.90;;;;;;4969624;28;20062;-73
2024/01/23 02:16:51;;;;;;;15.27;2.55;;;6.30;99.90;;;;;;4952088;28;20035;-73
2024/01/23 02:19:17;;;;;;;16.40;2.15;;;6.30;99.90;;;;;;4952576;28;20407;-73
2024/01/23 02:21:42;;;;;;;17.52;2.10;;;6.30;99.90;;;;;;4970160;28;20491;-73
2024/01/23 02:24:08;;;;;;;12.55;1.58;;;6.30;99.90;;;;;;4970067;28;20046;-73
2024/01/23 02:26:33;;;;;;;16.67;2.05;;;6.30;99.90;;;;;;4977468;28;20038;-73
2024/01/23 02:28:59;;;;;;;15.45;2.25;;;6.20;99.90;;;;;;4978005;28;20035;-73
2024/01/23 02:31:24;;;;;;;14.63;1.88;;;6.30;99.90;;;;;;4966513;28;20487;-73
2024/01/23 02:33:50;;;;;;;20.38;2.15;;;6.30;99.90;;;;;;4968361;28;20049;-73
2024/01/23 02:36:15;;;;;;;21.52;3.63;;;6.40;99.90;;;;;;4959707;28;20038;-73
2024/01/23 02:38:41;;;;;;;17.52;3.25;;;6.50;99.90;;;;;;4965713;28;20034;-73
2024/01/23 02:41:07;;;;;;;18.38;3.70;;;6.60;99.90;;;;;;4967590;28;20076;-73
2024/01/23 02:43:32;;;;;;;8.45;2.10;;;6.60;99.90;;;;;;4957809;28;20030;-73
2024/01/23 02:45:58;;;;;;;9.38;1.48;;;6.60;99.90;;;;;;4951655;28;20470;-73
2024/01/23 02:48:24;;;;;;;25.40;3.20;;;6.70;99.90;;;;;;4950758;28;20162;-73
2024/01/23 02:50:49;;;;;;;19.80;3.20;;;6.70;99.90;;;;;;4980371;28;20050;-73
2024/01/23 02:53:15;;;;;;;20.02;2.15;;;6.80;99.90;;;;;;4972549;28;20039;-73
2024/01/23 02:55:41;;;;;;;12.70;1.67;;;6.80;99.90;;;;;;4980597;28;20038;-73
2024/01/23 02:58:08;;;;;;;16.80;2.75;;;6.80;99.90;;;;;;4970170;28;20039;-73
2024/01/23 03:00:35;;;;;;;18.63;2.38;;;6.80;99.90;;;;;;4957243;28;20045;-72
2024/01/23 03:03:03;;;;;;;16.63;2.47;;;6.70;99.90;;;;;;4975805;28;20043;-73
2024/01/23 03:05:28;;;;;;;17.33;3.05;;;6.60;99.90;;;;;;4970150;28;20507;-74
2024/01/23 03:07:54;;;;;;;23.75;2.38;;;6.60;99.90;;;;;;4976170;28;20047;-73
2024/01/23 03:10:20;;;;;;;13.15;1.55;;;6.60;99.90;;;;;;4950593;28;20126;-72
2024/01/23 03:12:46;;;;;;;20.48;3.40;;;6.50;99.90;;;;;;4968059;28;20039;-74
2024/01/23 03:15:12;;;;;;;16.38;3.30;;;6.50;99.90;;;;;;4973531;28;20101;-72
2024/01/23 03:17:37;;;;;;;14.65;1.75;;;6.50;99.90;;;;;;4974963;28;20487;-73
2024/01/23 03:20:04;;;;;;;17.40;2.42;;;6.50;99.90;;;;;;4967929;28;20081;-74
2024/01/23 03:22:30;;;;;;;13.07;1.70;;;6.40;99.90;;;;;;4951511;28;20042;-73
2024/01/23 03:24:55;;;;;;;15.18;3.42;;;6.40;99.90;;;;;;4968454;28;20103;-74
2024/01/23 03:27:21;;;;;;;19.15;2.70;;;6.40;99.90;;;;;;4965321;28;20030;-72
2024/01/23 03:29:47;;;;;;;16.00;1.95;;;6.40;99.90;;;;;;4958016;28;20045;-71
2024/01/23 03:32:13;;;;;;;24.88;3.08;;;6.30;99.90;;;;;;4955615;28;20534;-74
2024/01/23 03:34:39;;;;;;;13.48;3.35;;;6.30;99.90;;;;;;4958568;28;20034;-75
2024/01/23 03:37:05;;;;;;;29.80;3.47;;;6.30;99.90;;;;;;4951448;28;20113;-75
2024/01/23 03:39:31;;;;;;;11.48;1.40;;;6.30;99.90;;;;;;4969312;28;20459;-73
2024/01/23 03:41:57;;;;;;;17.35;1.95;;;6.20;99.90;;;;;;4956701;28;20042;-74
2024/01/23 03:44:24;;;;;;;18.30;2.40;;;6.30;99.90;;;;;;4981779;28;20042;-73
2024/01/23 03:46:50;;;;;;;9.70;1.33;;;6.20;99.90;;;;;;4950329;28;20039;-74
2024/01/23 03:49:16;;;;;;;11.63;2.00;;;6.20;99.90;;;;;;4960995;28;20093;-74
2024/01/23 03:51:42;;;;;;;10.02;1.83;;;6.20;99.90;;;;;;4982111;28;20459;-74
2024/01/23 03:54:08;;;;;;;20.02;2.50;;;6.20;99.90;;;;;;4954203;28;20060;-73
2024/01/23 03:56:33;;;;;;;10.50;2.00;;;6.20;99.90;;;;;;4959058;28;20542;-74
2024/01/23 03:58:59;;;;;;;24.75;3.90;;;6.20;99.90;;;;;;4970402;28;20599;-74
2024/01/23 04:01:24;;;;;;;13.23;2.10;;;6.20;99.90;;;;;;4951914;28;20452;-73
2024/01/23 04:03:50;;;;;;;12.43;3.08;;;6.20;99.90;;;;;;4965849;28;20047;-74
2024/01/23 04:06:15;;;;;;;15.90;2.95;;;6.20;99.90;;;;;;4959126;28;20043;-73
2024/01/23 04:08:41;;;;;;;12.73;2.08;;;6.20;99.90;;;;;;4952889;28;20104;-73
2024/01/23 04:11:06;;;;;;;15.15;1.90;;;6.20;99.90;;;;;;4977088;28;20521;-74
2024/01/23 04:13:32;;;;;;;14.35;1.92;;;6.20;99.90;;;;;;4966082;28;20390;-75
2024/01/23 04:15:58;;;;;;;14.85;2.60;;;6.10;99.90;;;;;;4980008;28;20031;-74
2024/01/23 04:18:23;;;;;;;16.10;3.00;;;6.10;99.90;;;;;;4951208;28;20126;-74
2024/01/23 04:20:49;;;;;;;24.90;3.33;;;6.10;99.90;;;;;;4971361;28;20082;-74
2024/01/23 04:23:14;;;;;;;16.27;3.28;;;6.10;99.90;;;;;;4968150;28;20166;-73
2024/01/23 04:25:40;;;;;;;14.02;3.70;;;6.20;99.90;;;;;;4952808;28;20086;-74
2024/01/23 04:28:05;;;;;;;19.52;2.63;;;6.20;99.90;;;;;;4958896;28;20086;-73
2024/01/23 04:30:31;;;;;;;10.27;2.00;;;6.30;99.90;;;;;;4960886;28;20037;-74
2024/01/23 04:32:56;;;;;;;14.48;2.08;;;6.30;99.90;;;;;;4952598;28;20035;-74
2024/01/23 04:35:23;;;;;;;20.92;3.03;;;6.30;99.90;;;;;;4962386;28;20124;-73
2024/01/23 04:37:48;;;;;;;11.82;2.40;;;6.30;99.90;;;;;;4970071;28;20039;-74
2024/01/23 04:40:14;;;;;;;16.20;3.13;;;6.40;99.90;;;;;;4955147;28;20060;-74
2024/01/23 04:42:40;;;;;;;16.08;1.48;;;6.40;99.90;;;;;;4963529;28;20042;-75
2024/01/23 04:45:08;;;;;;;12.15;2.50;;;6.40;99.90;;;;;;4978059;28;20043;-74
2024/01/23 04:47:34;;;;;;;15.68;2.05;;;6.40;99.90;;;;;;4952191;28;20050;-74
2024/01/23 04:50:00;;;;;;;21.25;2.55;;;6.40;99.90;;;;;;4951790;28;20027;-74
2024/01/23 04:52:25;;;;;;;13.43;3.00;;;6.40;99.90;;;;;;4968161;28;20039;-73
2024/01/23 04:54:51;;;;;;;15.45;2.22;;;6.40;99.90;;;;;;4946754;28;20463;-72
2024/01/23 04:57:17;;;;;;;19.95;3.13;;;6.50;99.90;;;;;;4970585;28;20031;-75
2024/01/23 04:59:43;;;;;;;17.42;2.47;;;6.50;99.90;;;;;;4977244;28;20366;-73
2024/01/23 05:02:09;;;;;;;20.38;3.05;;;6.50;99.90;;;;;;4975699;28;20122;-74
2024/01/23 05:04:34;;;;;;;17.05;3.22;;;6.50;99.90;;;;;;4975890;28;20446;-74
2024/01/23 05:07:00;;;;;;;13.63;1.83;;;6.60;99.90;;;;;;4951159;28;20093;-76
2024/01/23 05:09:30;;;;;;;8.82;1.67;;;6.60;99.90;;;;;;4973383;28;20026;-74
2024/01/23 05:11:56;;;;;;;;;;;6.60;99.90;;;;;;4978467;28;20038;-72
2024/01/23 05:14:22;;;;;;;13.35;2.45;;;6.60;99.90;;;;;;4967545;28;19918;-75
2024/01/23 05:16:48;;;;;;;19.92;3.00;;;6.50;99.90;;;;;;4950734;28;20039;-73
2024/01/23 05:19:14;;;;;;;20.52;2.67;;;6.50;99.90;;;;;;4975425;28;20052;-74
2024/01/23 05:21:39;;;;;;;22.48;2.33;;;6.50;99.90;;;;;;4965791;28;20121;-76
2024/01/23 05:24:05;;;;;;;15.07;1.90;;;6.50;99.90;;;;;;4977115;28;20050;-74
2024/01/23 05:26:31;;;;;;;26.15;2.55;;;6.40;99.90;;;;;;4955741;28;20041;-73
2024/01/23 05:28:57;;;;;;;10.82;1.90;;;6.30;99.90;;;;;;4951528;28;20054;-75
2024/01/23 05:31:22;;;;;;;41.78;4.18;;;6.40;99.90;;;;;;4953186;28;20050;-74
2024/01/23 05:33:48;;;;;;;18.08;2.88;;;6.30;99.90;;;;;;4955132;28;20475;-74
2024/01/23 05:36:14;;;;;;;17.02;3.30;;;6.30;99.90;;;;;;4967588;28;20041;-74
2024/01/23 05:38:39;;;;;;;16.50;2.42;;;6.30;99.90;;;;;;4974849;28;20882;-73
2024/01/23 05:41:05;;;;;;;15.90;2.00;;;6.30;99.90;;;;;;4981907;28;20054;-74
2024/01/23 05:43:30;;;;;;;14.40;3.55;;;6.30;99.90;;;;;;4964574;28;20089;-73
2024/01/23 05:45:56;;;;;;;13.88;2.45;;;6.20;99.90;;;;;;4957514;28;20038;-72
2024/01/23 05:48:21;;;;;;;21.98;1.92;;;6.30;99.90;;;;;;4968887;28;20042;-72
2024/01/23 05:50:47;;;;;;;18.90;3.03;;;6.30;99.90;;;;;;4966919;28;20045;-73
2024/01/23 05:53:13;;;;;;;15.60;3.30;;;6.20;99.90;;;;;;4958533;28;20093;-75
2024/01/23 05:55:39;;;;;;;18.95;2.53;;;6.20;99.90;;;;;;4981637;28;20034;-74
2024/01/23 05:58:05;;;;;;;18.83;2.65;;;6.20;99.90;;;;;;4952718;28;20039;-74
2024/01/23 06:00:31;;;;;;;20.98;2.50;;;6.20;99.90;;;;;;4954670;28;20502;-73
2024/01/23 06:02:56;;;;;;;19.15;3.38;;;6.20;99.90;;;;;;4977381;28;20034;-72
2024/01/23 06:05:22;;;;;;;24.55;5.13;;;6.20;99.90;;;;;;4953533;28;20031;-74
2024/01/23 06:07:51;;;;;;;19.50;2.70;;;6.20;99.90;;;;;;4971551;28;20561;-74
2024/01/23 06:10:17;;;;;;;17.95;3.22;;;6.20;99.90;;;;;;4957007;28;20023;-73
2024/01/23 06:12:43;;;;;;;18.70;3.53;;;6.20;99.90;;;;;;4975313;28;20046;-74
2024/01/23 06:15:09;;;;;;;16.92;3.30;;;6.20;99.90;;;;;;4950685;28;20129;-73
2024/01/23 06:17:35;;;;;;;15.52;2.15;;;6.10;99.90;;;;;;4956678;28;20035;-75
2024/01/23 06:20:04;;;;;;;12.63;2.28;;;6.10;99.90;;;;;;4959627;28;20097;-72
2024/01/23 06:22:32;;;;;;;21.42;1.85;;;6.10;99.90;;;;;;4950476;28;20560;-74
2024/01/23 06:25:01;;;;;;;17.48;3.28;;;6.10;99.90;;;;;;4950843;28;20045;-74
2024/01/23 06:27:26;;;;;;;23.23;3.78;;;6.10;99.90;;;;;;4977847;28;20041;-75
2024/01/23 06:29:52;;;;;;;17.98;3.00;;;6.10;99.90;;;;;;4981375;28;20030;-75
2024/01/23 06:32:17;;;;;;;19.35;2.65;;;6.00;99.90;;;;;;4951759;28;20145;-73
2024/01/23 06:34:43;;;;;;;12.80;2.47;;;6.00;99.90;;;;;;4960424;28;20061;-73
2024/01/23 06:37:08;;;;;;;16.45;3.58;;;6.00;99.90;;;;;;4981794;28;20035;-73
2024/01/23 06:39:34;;;;;;;18.67;2.00;;;6.10;99.90;;;;;;4981429;28;20042;-74
2024/01/23 06:41:59;;;;;;;13.05;2.40;;;6.10;99.90;;;;;;4966786;28;20046;-73
2024/01/23 06:44:25;;;;;;;14.65;2.40;;;6.10;99.90;;;;;;4967103;28;20026;-74
2024/01/23 06:46:50;;;;;;;17.73;3.08;;;6.00;99.90;;;;;;4967230;28;20035;-74
2024/01/23 06:49:16;;;;;;;17.90;1.90;;;6.00;99.90;;;;;;4959285;28;20042;-74
2024/01/23 06:51:41;;;;;;;16.42;2.30;;;5.90;99.90;;;;;;4967192;28;20393;-73
2024/01/23 06:54:07;;;;;;;15.60;2.75;;;6.00;99.90;;;;;;4967212;28;20043;-74
2024/01/23 06:56:34;;;;;;;22.80;3.65;;;6.00;99.90;;;;;;4958589;28;20042;-73
2024/01/23 06:59:00;;;;;;;15.90;2.00;;;6.00;99.90;;;;;;4967576;28;20077;-73
2024/01/23 07:01:26;;;;;;;20.10;3.10;;;6.00;99.90;;;;;;4958409;28;20075;-74
2024/01/23 07:03:52;;;;;;;25.80;2.70;;;5.90;99.90;;;;;;4956194;28;20035;-74
2024/01/23 07:06:18;;;;;;;8.52;2.60;;;5.90;99.90;;;;;;4968430;28;20043;-74
2024/01/23 07:08:43;;;;;;;12.02;2.92;;;5.90;99.90;;;;;;4959222;28;20096;-74
2024/01/23 07:11:09;;;;;;;11.65;2.20;;;5.80;99.90;;;;;;4976046;28;20434;-74
2024/01/23 07:13:34;;;;;;;17.75;2.78;;;5.80;99.90;;;;;;4969958;28;20030;-72
2024/01/23 07:16:00;;;;;;;11.27;1.95;;;5.80;99.90;;;;;;4974418;28;20034;-74
2024/01/23 07:18:25;;;;;;;16.00;2.40;;;5.80;99.90;;;;;;4975534;28;20133;-74
2024/01/23 07:20:51;;;;;;;31.27;4.68;;;5.80;99.90;;;;;;4960006;28;20169;-73
2024/01/23 07:23:17;;;;;;;13.95;2.88;;;5.70;99.90;;;;;;4949372;28;20054;-73
2024/01/23 07:25:42;;;;;;;12.60;2.50;;;5.70;99.90;;;;;;4954972;28;20039;-75
2024/01/23 07:28:08;;;;;;;22.15;2.78;;;5.70;99.90;;;;;;4957388;28;20035;-74
2024/01/23 07:30:33;;;;;;;16.05;2.33;;;5.60;99.90;;;;;;4953431;28;20141;-73
2024/01/23 07:32:59;;;;;;;25.80;4.53;;;5.60;99.90;;;;;;4953786;28;20126;-73
2024/01/23 07:35:24;;;;;;;18.85;2.78;;;5.60;99.90;;;;;;4959770;28;20038;-74
2024/01/23 07:37:50;;;;;;;17.55;2.35;;;5.50;99.90;;;;;;4974710;28;20504;-72
2024/01/23 07:40:15;;;;;;;16.13;1.98;;;5.50;99.90;;;;;;4976095;28;20046;-73
2024/01/23 07:42:41;;;;;;;11.15;2.75;;;5.50;99.90;;;;;;4982387;28;20129;-75
2024/01/23 07:45:07;;;;;;;22.17;2.97;;;5.40;99.90;;;;;;4952313;28;20393;-75
2024/01/23 07:47:32;;;;;;;20.50;3.83;;;5.40;99.90;;;;;;4974963;28;20113;-74
2024/01/23 07:49:58;;;;;;;12.15;2.70;;;5.30;99.90;;;;;;4953663;28;20419;-75
2024/01/23 07:52:26;;;;;;;13.65;2.38;;;5.30;99.90;;;;;;4968989;28;20035;-74
2024/01/23 07:54:53;;;;;;;18.80;2.70;;;5.30;99.90;;;;;;4976478;28;20043;-74
2024/01/23 07:57:18;;;;;;;17.48;3.60;;;5.30;99.90;;;;;;4953235;28;20026;-73
2024/01/23 07:59:44;;;;;;;14.32;2.22;;;5.20;99.90;;;;;;4964706;28;20039;-73
2024/01/23 08:02:09;;;;;;;21.13;2.55;;;5.20;99.90;;;;;;4976775;28;20062;-73
2024/01/23 08:04:35;;;;;;;18.65;3.25;;;5.20;99.90;;;;;;4981519;28;20509;-72
2024/01/23 08:07:00;;;;;;;16.30;2.85;;;5.10;99.90;;;;;;4956921;28;20035;-72
2024/01/23 08:09:26;;;;;;;22.85;3.45;;;5.10;99.90;;;;;;4959513;28;20039;-73
2024/01/23 08:11:52;;;;;;;22.83;2.15;;;5.20;99.90;;;;;;4952625;28;20046;-73
2024/01/23 08:14:18;;;;;;;17.25;2.75;;;5.20;99.90;;;;;;4970010;28;20039;-72
2024/01/23 08:16:44;;;;;;;13.88;2.22;;;5.20;99.90;;;;;;4962945;28;20042;-73
2024/01/23 08:19:10;;;;;;;16.13;2.17;;;5.20;99.90;;;;;;4977071;28;20030;-73
2024/01/23 08:21:36;;;;;;;16.55;2.53;;;5.30;99.90;;;;;;4977733;28;20039;-73
2024/01/23 08:24:01;;;;;;;16.75;2.70;;;5.40;99.90;;;;;;4968404;28;20049;-74
2024/01/23 08:26:27;;;;;;;22.88;4.28;;;5.40;99.90;;;;;;4976510;28;20967;-73
2024/01/23 08:28:52;;;;;;;14.98;2.53;;;5.40;99.90;;;;;;4974879;28;20434;-73
2024/01/23 08:31:18;;;;;;;18.33;2.20;;;5.40;99.90;;;;;;4986443;28;20492;-73
2024/01/23 08:33:43;;;;;;;18.02;2.53;;;5.40;99.90;;;;;;4954766;28;20491;-73
2024/01/23 08:36:09;;;;;;;22.02;2.80;;;5.40;99.90;;;;;;4966220;28;20122;-74
2024/01/23 08:38:35;;;;;;;19.90;3.40;;;5.40;99.90;;;;;;4957201;28;20046;-73
2024/01/23 08:41:00;;;;;;;20.38;2.70;;;5.40;99.90;;;;;;4969376;28;20110;-73
2024/01/23 08:43:26;;;;;;;19.00;2.45;;;5.40;99.90;;;;;;4976801;28;20090;-73
2024/01/23 08:45:51;;;;;;;17.75;2.83;;;5.40;99.90;;;;;;4980393;28;20034;-73
2024/01/23 08:48:22;;;;;;;31.63;3.58;;;5.50;99.90;;;;;;4970727;28;20042;-73
2024/01/23 08:50:50;;;;;;;19.33;2.78;;;5.50;99.90;;;;;;4951057;28;20042;-73
2024/01/23 08:53:16;;;;;;;20.27;3.97;;;5.60;99.90;;;;;;4971288;28;20047;-73
2024/01/23 08:55:41;;;;;;;22.95;2.97;;;5.70;99.90;;;;;;4960473;28;20058;-73
2024/01/23 08:58:08;;;;;;;22.77;2.85;;;5.90;99.90;;;;;;4968045;28;20143;-73
2024/01/23 09:00:34;;;;;;;29.88;3.83;;;5.90;99.90;;;;;;4962674;28;20039;-73
2024/01/23 09:02:59;;;;;;;24.58;3.78;;;6.00;99.90;;;;;;4974641;28;20038;-73
2024/01/23 09:05:25;;;;;;;30.13;4.60;;;6.00;99.90;;;;;;4974539;28;20596;-72
2024/01/23 09:07:50;;;;;;;25.60;4.85;;;6.10;99.90;;;;;;4972969;28;20565;-73
2024/01/23 09:10:16;;;;;;;17.30;2.95;;;6.00;99.90;;;;;;4945425;28;20027;-73
2024/01/23 09:12:41;;;;;;;13.68;2.42;;;6.10;99.90;;;;;;4969101;28;20015;-73
2024/01/23 09:15:09;;;;;;;22.60;3.42;;;6.10;99.90;;;;;;4957803;28;20026;-73
2024/01/23 09:17:36;;;;;;;16.85;2.50;;;6.10;99.90;;;;;;4969104;28;20745;-73
2024/01/23 09:20:01;;;;;;;20.13;3.55;;;6.20;99.90;;;;;;4981580;28;20031;-73
2024/01/23 09:22:29;;;;;;;14.10;2.42;;;6.30;99.90;;;;;;4963164;28;20551;-73
2024/01/23 09:24:54;;;;;;;21.50;3.60;;;6.30;99.90;;;;;;4962723;28;20046;-72
2024/01/23 09:27:20;;;;;;;19.98;2.95;;;6.30;99.90;;;;;;4959223;28;20034;-73
2024/01/23 09:29:45;;;;;;;26.60;4.45;;;6.40;99.90;;;;;;4955619;28;20046;-73
2024/01/23 09:32:11;;;;;;;24.38;3.55;;;6.50;99.90;;;;;;4954996;28;20042;-73
2024/01/23 09:34:37;;;;;;;19.63;2.50;;;6.60;99.90;;;;;;4972781;28;20383;-73
2024/01/23 09:37:02;;;;;;;20.27;3.22;;;6.60;99.90;;;;;;4950406;28;20062;-72
2024/01/23 09:39:28;;;;;;;25.85;5.30;;;6.70;99.90;;;;;;4960398;28;20117;-73
2024/01/23 09:41:59;;;;;;;17.38;3.42;;;6.80;99.90;;;;;;4963366;28;20038;-72
2024/01/23 09:44:25;;;;;;;18.45;4.10;;;6.80;99.90;;;;;;4957570;28;20450;-72
2024/01/23 09:46:51;;;;;;;20.77;3.08;;;6.90;99.90;;;;;;4978789;28;20038;-72
2024/01/23 09:49:18;;;;;;;17.60;3.65;;;7.00;99.90;;;;;;4960682;28;20714;-73
2024/01/23 09:51:47;;;;;;;27.50;5.30;;;6.90;99.90;;;;;;4954341;28;20042;-72
2024/01/23 09:54:14;;;;;;;29.33;4.18;;;7.00;99.90;;;;;;4966248;28;20038;-73
2024/01/23 09:56:40;;;;;;;26.27;4.07;;;7.00;99.90;;;;;;4983617;28;20034;-73
2024/01/23 09:59:07;;;;;;;16.42;2.70;;;7.10;99.90;;;;;;4960531;28;20027;-72
2024/01/23 10:01:35;;;;;;;16.75;1.90;;;7.10;99.90;;;;;;4977334;28;20035;-71
2024/01/23 10:04:04;;;;;;;26.45;2.88;;;7.20;99.90;;;;;;4974469;28;20509;-73
2024/01/23 10:06:30;;;;;;;17.08;3.55;;;7.20;99.90;;;;;;4976593;28;20030;-72
2024/01/23 10:08:56;;;;;;;18.35;2.25;;;7.20;99.90;;;;;;4975454;28;20582;-73
2024/01/23 10:11:21;;;;;;;13.38;2.30;;;7.20;99.90;;;;;;4973892;28;20129;-73
2024/01/23 10:13:48;;;;;;;26.38;3.35;;;7.20;99.90;;;;;;4959116;28;20120;-73
2024/01/23 10:16:15;;;;;;;14.68;2.42;;;7.30;99.90;;;;;;4957870;28;20074;-73
2024/01/23 10:18:41;;;;;;;16.02;3.08;;;7.30;99.90;;;;;;4971020;28;20676;-73
2024/01/23 10:21:06;;;;;;;16.08;2.45;;;7.40;99.90;;;;;;4960742;28;20133;-73
2024/01/23 10:23:33;;;;;;;16.17;2.90;;;7.50;99.90;;;;;;4975694;28;20034;-72
2024/01/23 10:25:59;;;;;;;16.20;3.15;;;7.50;99.90;;;;;;4974221;28;20039;-75
2024/01/23 10:28:25;;;;;;;17.83;2.42;;;7.50;99.90;;;;;;4975139;28;25430;-74
2024/01/23 10:30:51;;;;;;;20.15;3.20;;;7.60;99.90;;;;;;4950354;28;20050;-72
2024/01/23 10:33:17;;;;;;;17.02;2.80;;;7.70;99.90;;;;;;4947473;28;20027;-75
2024/01/23 10:35:44;;;;;;;13.77;3.35;;;7.70;99.90;;;;;;4986590;28;20033;-74
2024/01/23 10:38:14;;;;;;;9.15;2.20;;;7.70;99.90;;;;;;4970414;28;20035;-75
2024/01/23 10:40:40;;;;;;;27.98;3.40;;;7.70;99.90;;;;;;4960850;28;20035;-75
2024/01/23 10:43:06;;;;;;;23.20;3.67;;;7.70;99.90;;;;;;4954383;28;20089;-75
2024/01/23 10:45:32;;;;;;;17.83;2.70;;;7.70;99.90;;;;;;4967670;28;20134;-76
2024/01/23 10:48:00;;;;;;;22.38;4.18;;;7.70;99.90;;;;;;4966674;28;20460;-76
2024/01/23 10:50:29;;;;;;;25.48;2.70;;;7.70;99.90;;;;;;4955579;28;20035;-75
2024/01/23 10:53:06;;;;;;;18.90;3.45;;;7.80;99.90;;;;;;4960550;28;20038;-74
2024/01/23 10:55:32;;;;;;;17.83;2.30;;;7.90;99.90;;;;;;4958548;28;20325;-73
2024/01/23 10:58:18;;;;;;;15.07;3.03;;;7.90;99.90;;;;;;4949537;28;20383;-74
2024/01/23 11:00:44;;;;;;;22.33;5.55;;;7.90;99.90;;;;;;4966675;28;20043;-74
2024/01/23 11:03:12;;;;;;;18.65;2.17;;;7.90;99.90;;;;;;4957050;28;20145;-74
2024/01/23 11:05:52;;;;;;;22.63;2.72;;;7.90;99.90;;;;;;4959263;28;20109;-76
2024/01/23 11:08:21;;;;;;;10.57;2.50;;;8.00;99.90;;;;;;4955639;28;20039;-74
2024/01/23 11:10:52;;;;;;;18.05;2.42;;;8.10;99.90;;;;;;4958598;28;20030;-73
2024/01/23 11:13:37;;;;;;;20.00;2.83;;;8.10;99.90;;;;;;4966408;28;20506;-74
2024/01/23 11:16:06;;;;;;;17.92;3.03;;;8.00;99.90;;;;;;4951144;28;20074;-75
2024/01/23 11:18:35;;;;;;;14.30;2.30;;;8.00;99.90;;;;;;4976234;28;20097;-73
2024/01/23 11:21:04;;;;;;;21.08;1.92;;;8.00;99.90;;;;;;4961864;28;20042;-75
2024/01/23 11:23:30;;;;;;;17.45;2.97;;;7.90;99.90;;;;;;4951619;28;20049;-74
2024/01/23 11:26:12;;;;;;;15.93;2.40;;;7.90;99.90;;;;;;4958507;28;20049;-75
2024/01/23 11:28:38;;;;;;;17.90;2.13;;;7.80;99.90;;;;;;4965586;28;20046;-75
2024/01/23 11:31:18;;;;;;;12.15;2.53;;;7.90;99.90;;;;;;4973809;28;20039;-74
2024/01/23 11:33:44;;;;;;;11.40;2.08;;;7.80;99.90;;;;;;4974597;28;20034;-73
2024/01/23 11:36:12;;;;;;;15.27;2.17;;;8.00;99.90;;;;;;4953658;28;20034;-73
2024/01/23 11:38:42;;;;;;;20.73;3.63;;;8.10;99.90;;;;;;4951674;28;20039;-73
2024/01/23 11:41:27;;;;;;;11.38;2.53;;;8.30;99.90;;;;;;4950982;28;20113;-74
2024/01/23 11:44:03;;;;;;;26.88;3.20;;;8.40;99.90;;;;;;4960837;28;20034;-73
2024/01/23 11:46:30;;;;;;;11.38;2.22;;;8.40;99.90;;;;;;4953749;28;20090;-72
2024/01/23 11:48:55;;;;;;;15.93;2.45;;;8.40;99.90;;;;;;4961142;28;20038;-74
2024/01/23 11:51:22;;;;;;;13.63;2.50;;;8.40;99.90;;;;;;4972583;28;24523;-74
2024/01/23 11:53:48;;;;;;;15.82;3.38;;;8.40;99.90;;;;;;4975049;28;20086;-75
2024/01/23 11:56:15;;;;;;;15.55;2.17;;;8.40;99.90;;;;;;4972375;28;20488;-75
2024/01/23 11:58:41;;;;;;;15.00;2.40;;;8.40;99.90;;;;;;4970059;28;20042;-74
2024/01/23 12:01:09;;;;;;;19.60;2.97;;;8.40;99.90;;;;;;4956412;28;20406;-72
2024/01/23 12:03:35;;;;;;;18.95;3.53;;;8.50;99.90;;;;;;4970947;28;20043;-74
2024/01/23 12:06:02;;;;;;;19.70;3.00;;;8.50;99.90;;;;;;4956651;28;20122;-74
2024/01/23 12:08:28;;;;;;;16.00;2.47;;;8.50;99.90;;;;;;4948077;28;20042;-71
2024/01/23 12:10:56;;;;;;;12.88;2.00;;;8.50;99.90;;;;;;4960265;28;20517;-73
2024/01/23 12:13:23;;;;;;;17.90;2.75;;;8.50;99.90;;;;;;4966193;28;20055;-76
2024/01/23 12:15:48;;;;;;;16.55;2.05;;;8.50;99.90;;;;;;4964366;28;20031;-74
2024/01/23 12:18:14;;;;;;;25.65;3.13;;;8.50;99.90;;;;;;4973742;28;20045;-74
2024/01/23 12:20:50;;;;;;;17.90;2.35;;;8.50;99.90;;;;;;4959258;28;20073;-73
2024/01/23 12:23:17;;;;;;;13.13;2.30;;;8.50;99.90;;;;;;4974777;28;20069;-74
2024/01/23 12:25:43;;;;;;;16.45;3.00;;;8.50;99.90;;;;;;4964066;28;20041;-73
2024/01/23 12:28:09;;;;;;;11.98;2.60;;;8.50;99.90;;;;;;4969883;28;20121;-74
2024/01/23 12:30:35;;;;;;;19.70;3.15;;;8.50;99.90;;;;;;4962948;28;20038;-74
2024/01/23 12:33:01;;;;;;;11.18;2.00;;;8.50;99.90;;;;;;4955316;28;20034;-75
2024/01/23 12:35:27;;;;;;;14.80;2.17;;;8.50;99.90;;;;;;4965758;28;20775;-72
2024/01/23 12:37:52;;;;;;;17.42;2.20;;;8.60;99.90;;;;;;4982243;28;20041;-74
2024/01/23 12:40:18;;;;;;;26.58;2.63;;;8.60;99.90;;;;;;4964335;28;20031;-74
2024/01/23 12:42:44;;;;;;;20.27;2.53;;;8.70;99.90;;;;;;4953516;28;20053;-74